Time;durP1;ratioP1;P1;durP2;ratioP2;P2;SDS_P1;SDS_P2;PMS_P1;PMS_P2;Temp;Humidity;BMP_temperature;BMP_pressure;BME280_temperature;BME280_humidity;BME280_pressure;Samples;Min_cycle;Max_cycle;Signal;HPM_P1;HPM_P2
2023/05/20 00:02:08;;;;;;;;;;;16.90;71.70;;;;;;5090450;28;20323;-77
2023/05/20 00:04:34;;;;;;;;;;;16.90;71.70;;;;;;5090714;28;19918;-77
2023/05/20 00:07:00;;;;;;;;;;;16.80;71.70;;;;;;5090429;28;19916;-77
2023/05/20 00:09:25;;;;;;;;;;;16.80;71.80;;;;;;5089126;28;19916;-77
2023/05/20 00:11:51;;;;;;;;;;;16.80;71.80;;;;;;5090364;28;19913;-77
2023/05/20 00:14:16;;;;;;;;;;;16.80;71.80;;;;;;5088987;28;19977;-77
2023/05/20 00:16:42;;;;;;;;;;;16.70;71.80;;;;;;5090156;28;20430;-77
2023/05/20 00:19:08;;;;;;;;;;;16.70;71.90;;;;;;5090874;28;19912;-77
2023/05/20 00:21:33;;;;;;;;;;;16.60;71.80;;;;;;5090258;28;20455;-77
2023/05/20 00:23:59;;;;;;;;;;;16.60;71.90;;;;;;5090267;28;19919;-77
2023/05/20 00:26:25;;;;;;;;;;;16.60;72.00;;;;;;5090185;28;19924;-77
2023/05/20 00:28:51;;;;;;;;;;;16.60;72.00;;;;;;5090081;28;19934;-77
2023/05/20 00:31:16;;;;;;;;;;;16.60;71.90;;;;;;5090059;28;19912;-78
2023/05/20 00:33:42;;;;;;;;;;;16.60;72.50;;;;;;5089956;28;19912;-77
2023/05/20 00:36:07;;;;;;;;;;;16.60;72.00;;;;;;5089932;28;19922;-77
2023/05/20 00:38:33;;;;;;;;;;;16.70;72.00;;;;;;5089976;28;19908;-78
2023/05/20 00:40:58;;;;;;;;;;;16.70;71.90;;;;;;5089876;28;19919;-77
2023/05/20 00:43:25;;;;;;;;;;;16.80;71.80;;;;;;5089474;28;19916;-77
2023/05/20 00:45:51;;;;;;;;;;;16.80;71.70;;;;;;5089412;28;19994;-77
2023/05/20 00:48:17;;;;;;;;;;;16.80;71.70;;;;;;5088577;28;19946;-77
2023/05/20 00:50:43;;;;;;;;;;;16.70;71.70;;;;;;5089573;28;19985;-77
2023/05/20 00:53:09;;;;;;;;;;;16.70;71.80;;;;;;5089558;28;19912;-76
2023/05/20 00:55:34;;;;;;;;;;;16.70;71.90;;;;;;5089514;28;20366;-76
2023/05/20 00:58:00;;;;;;;;;;;16.70;71.90;;;;;;5089622;28;19912;-76
2023/05/20 01:00:25;;;;;;;;;;;16.80;71.80;;;;;;5089502;28;20056;-76
2023/05/20 01:02:51;;;;;;;;;;;16.80;71.70;;;;;;5089159;28;19931;-76
2023/05/20 01:05:17;;;;;;;;;;;16.80;71.70;;;;;;5089419;28;19919;-76
2023/05/20 01:07:42;;;;;;;;;;;16.80;71.70;;;;;;5089391;28;19920;-71
2023/05/20 01:10:08;;;;;;;;;;;16.70;71.70;;;;;;5089338;28;20376;-71
2023/05/20 01:12:47;;;;;;;;;;;16.70;71.80;;;;;;5087908;28;19912;-71
2023/05/20 01:15:14;;;;;;;;;;;16.70;71.80;;;;;;5088074;28;19912;-71
2023/05/20 01:17:43;;;;;;;;;;;16.70;71.80;;;;;;5089139;28;20357;-71
2023/05/20 01:20:09;;;;;;;;;;;16.70;71.70;;;;;;5088036;28;19908;-71
2023/05/20 01:23:07;;;;;;;;;;;16.70;71.60;;;;;;5089066;28;19916;-71
2023/05/20 01:25:33;;;;;;;;;;;16.80;71.50;;;;;;5065580;28;19959;-71
2023/05/20 01:27:59;;;;;;;;;;;16.80;71.50;;;;;;5089092;28;19912;-71
2023/05/20 01:30:28;;;;;;;;;;;16.80;71.50;;;;;;5088920;28;20330;-71
2023/05/20 01:32:56;;;;;;;;;;;16.70;71.40;;;;;;5087595;28;19908;-71
2023/05/20 01:35:22;;;;;;;;;;;16.70;71.50;;;;;;5088747;28;19916;-71
2023/05/20 01:37:49;;;;;;;;;;;16.70;71.60;;;;;;5088839;28;20015;-71
2023/05/20 01:40:15;;;;;;;;;;;16.60;71.50;;;;;;5087310;28;19916;-71
2023/05/20 01:42:43;;;;;;;;;;;16.60;71.50;;;;;;5088696;28;19919;-71
2023/05/20 01:45:08;;;;;;;;;;;16.60;71.60;;;;;;5088733;28;19954;-71
2023/05/20 01:47:34;;;;;;;;;;;16.50;71.60;;;;;;5087342;28;20129;-71
2023/05/20 01:50:00;;;;;;;;;;;16.50;71.70;;;;;;5088520;28;20288;-71
2023/05/20 01:52:25;;;;;;;;;;;16.50;71.70;;;;;;5087238;28;19919;-71
2023/05/20 01:54:51;;;;;;;;;;;16.50;71.60;;;;;;5088415;28;19915;-71
2023/05/20 01:57:17;;;;;;;;;;;16.50;71.60;;;;;;5088412;28;19912;-71
2023/05/20 01:59:43;;;;;;;;;;;16.50;71.60;;;;;;5088302;28;19965;-71
2023/05/20 02:02:09;;;;;;;;;;;16.50;71.60;;;;;;5088197;28;19924;-71
2023/05/20 02:04:34;;;;;;;;;;;16.40;71.60;;;;;;5088183;28;19920;-71
2023/05/20 02:07:00;;;;;;;;;;;16.40;71.60;;;;;;5088157;28;19952;-71
2023/05/20 02:09:26;;;;;;;;;;;16.30;71.70;;;;;;5088074;28;20287;-71
2023/05/20 02:11:51;;;;;;;;;;;16.40;71.70;;;;;;5088099;28;20065;-71
2023/05/20 02:14:17;;;;;;;;;;;16.40;71.70;;;;;;5087998;28;19923;-71
2023/05/20 02:16:42;;;;;;;;;;;16.50;71.60;;;;;;5087962;28;19916;-71
2023/05/20 02:19:11;;;;;;;;;;;16.50;71.50;;;;;;5088182;28;19912;-71
2023/05/20 02:21:40;;;;;;;;;;;16.40;71.50;;;;;;5087973;28;19949;-71
2023/05/20 02:24:06;;;;;;;;;;;16.50;71.60;;;;;;5087944;28;20351;-71
2023/05/20 02:26:33;;;;;;;;;;;16.40;71.60;;;;;;5088043;28;20425;-72
2023/05/20 02:28:58;;;;;;;;;;;16.40;71.70;;;;;;5087879;28;20275;-71
2023/05/20 02:31:24;;;;;;;;;;;16.40;71.70;;;;;;5086534;28;19908;-71
2023/05/20 02:33:50;;;;;;;;;;;16.40;71.70;;;;;;5087836;28;19920;-71
2023/05/20 02:36:16;;;;;;;;;;;16.30;71.60;;;;;;5087705;28;20356;-71
2023/05/20 02:38:42;;;;;;;;;;;16.40;71.60;;;;;;5087733;28;19944;-71
2023/05/20 02:41:07;;;;;;;;;;;16.40;71.60;;;;;;5087600;28;20386;-72
2023/05/20 02:43:35;;;;;;;;;;;16.40;71.60;;;;;;5087784;28;19995;-71
2023/05/20 02:46:03;;;;;;;;;;;16.50;71.60;;;;;;5087900;28;19923;-72
2023/05/20 02:48:29;;;;;;;;;;;16.40;71.60;;;;;;5086455;28;19912;-72
2023/05/20 02:50:54;;;;;;;;;;;16.30;71.60;;;;;;5087655;28;19916;-72
2023/05/20 02:53:20;;;;;;;;;;;16.30;71.70;;;;;;5087660;28;19951;-72
2023/05/20 02:55:49;;;;;;;;;;;16.30;71.80;;;;;;5087950;28;20284;-72
2023/05/20 02:58:16;;;;;;;;;;;16.20;71.60;;;;;;5087718;28;19966;-72
2023/05/20 03:00:42;;;;;;;;;;;16.30;71.50;;;;;;5087522;28;19920;-71
2023/05/20 03:03:08;;;;;;;;;;;16.30;71.50;;;;;;5087463;28;20311;-71
2023/05/20 03:05:38;;;;;;;;;;;16.30;71.50;;;;;;5087520;28;20292;-71
2023/05/20 03:08:08;;;;;;;;;;;16.30;71.50;;;;;;5088571;28;19931;-71
2023/05/20 03:10:34;;;;;;;;;;;16.20;71.40;;;;;;5091774;28;19908;-71
2023/05/20 03:13:00;;;;;;;;;;;16.20;71.50;;;;;;5090206;28;20067;-71
2023/05/20 03:15:25;;;;;;;;;;;16.20;71.40;;;;;;5091470;28;20012;-71
2023/05/20 03:17:51;;;;;;;;;;;16.20;71.40;;;;;;5091426;28;19923;-71
2023/05/20 03:20:17;;;;;;;;;;;16.20;71.40;;;;;;5091342;28;19918;-71
2023/05/20 03:22:43;;;;;;;;;;;16.20;71.30;;;;;;5089987;28;19916;-71
2023/05/20 03:25:08;;;;;;;;;;;16.20;71.30;;;;;;5091369;28;19923;-71
2023/05/20 03:27:35;;;;;;;;;;;16.10;71.30;;;;;;5091258;28;19950;-71
2023/05/20 03:30:02;;;;;;;;;;;16.10;71.40;;;;;;5091181;28;19919;-71
2023/05/20 03:32:27;;;;;;;;;;;16.00;71.30;;;;;;5091217;28;19947;-71
2023/05/20 03:34:53;;;;;;;;;;;16.00;71.40;;;;;;5089845;28;19966;-71
2023/05/20 03:37:19;;;;;;;;;;;15.90;71.40;;;;;;5091136;28;19923;-71
2023/05/20 03:39:44;;;;;;;;;;;15.90;71.50;;;;;;5090973;28;20322;-71
2023/05/20 03:42:10;;;;;;;;;;;15.80;71.40;;;;;;5089805;28;19919;-71
2023/05/20 03:44:35;;;;;;;;;;;15.80;71.60;;;;;;5089652;28;19909;-71
2023/05/20 03:47:01;;;;;;;;;;;15.70;71.50;;;;;;5091033;28;19908;-71
2023/05/20 03:49:27;;;;;;;;;;;15.70;71.40;;;;;;5089521;28;19987;-71
2023/05/20 03:51:52;;;;;;;;;;;15.80;71.40;;;;;;5089582;28;19912;-71
2023/05/20 03:54:18;;;;;;;;;;;15.70;71.30;;;;;;5090662;28;19928;-71
2023/05/20 03:56:45;;;;;;;;;;;15.70;71.40;;;;;;5090682;28;20334;-71
2023/05/20 03:59:11;;;;;;;;;;;15.70;71.40;;;;;;5089548;28;20288;-71
2023/05/20 04:01:37;;;;;;;;;;;15.70;71.40;;;;;;5090443;28;19934;-71
2023/05/20 04:04:03;;;;;;;;;;;15.70;71.40;;;;;;5090637;28;19916;-71
2023/05/20 04:06:28;;;;;;;;;;;15.70;71.30;;;;;;5090528;28;19908;-71
2023/05/20 04:08:54;;;;;;;;;;;15.70;71.30;;;;;;5090383;28;20277;-71
2023/05/20 04:11:20;;;;;;;;;;;15.70;71.30;;;;;;5090489;28;19943;-71
2023/05/20 04:13:46;;;;;;;;;;;15.60;71.30;;;;;;5089187;28;19927;-71
2023/05/20 04:16:11;;;;;;;;;;;15.60;71.40;;;;;;5090365;28;19912;-71
2023/05/20 04:18:37;;;;;;;;;;;15.60;71.40;;;;;;5088955;28;20062;-71
2023/05/20 04:21:04;;;;;;;;;;;15.60;71.40;;;;;;5090095;28;19923;-72
2023/05/20 04:23:29;;;;;;;;;;;15.60;71.40;;;;;;5088984;28;19919;-71
2023/05/20 04:26:00;;;;;;;;;;;15.60;71.40;;;;;;5090346;28;19920;-71
2023/05/20 04:28:26;;;;;;;;;;;15.50;71.40;;;;;;5072783;28;19942;-72
2023/05/20 04:31:03;;;;;;;;;;;15.50;71.50;;;;;;5090349;28;19912;-71
2023/05/20 04:33:29;;;;;;;;;;;15.40;71.50;;;;;;5090152;28;20376;-71
2023/05/20 04:35:57;;;;;;;;;;;15.40;71.50;;;;;;5089888;28;19920;-71
2023/05/20 04:38:28;;;;;;;;;;;15.40;71.60;;;;;;5088646;28;19921;-72
2023/05/20 04:40:56;;;;;;;;;;;15.30;71.70;;;;;;5090055;28;20280;-72
2023/05/20 04:43:23;;;;;;;;;;;15.40;71.70;;;;;;5089893;28;19920;-71
2023/05/20 04:45:49;;;;;;;;;;;15.40;71.60;;;;;;5088678;28;19994;-71
2023/05/20 04:48:14;;;;;;;;;;;15.40;71.60;;;;;;5089751;28;19959;-72
2023/05/20 04:50:40;;;;;;;;;;;15.40;71.60;;;;;;5088434;28;20011;-72
2023/05/20 04:53:06;;;;;;;;;;;15.40;71.60;;;;;;5089786;28;19916;-71
2023/05/20 04:55:32;;;;;;;;;;;15.40;71.70;;;;;;5089607;28;19919;-71
2023/05/20 04:57:57;;;;;;;;;;;15.40;71.70;;;;;;5089587;28;19908;-71
2023/05/20 05:00:23;;;;;;;;;;;15.50;71.70;;;;;;5087861;28;19913;-71
2023/05/20 05:02:49;;;;;;;;;;;15.50;71.60;;;;;;5089376;28;19924;-71
2023/05/20 05:05:15;;;;;;;;;;;15.50;71.60;;;;;;5089399;28;19926;-71
2023/05/20 05:07:40;;;;;;;;;;;15.50;71.50;;;;;;5089491;28;20331;-71
2023/05/20 05:10:06;;;;;;;;;;;15.60;71.40;;;;;;5089397;28;19998;-71
2023/05/20 05:12:31;;;;;;;;;;;15.60;71.40;;;;;;5089666;28;20241;-71
2023/05/20 05:14:58;;;;;;;;;;;15.50;71.50;;;;;;5089091;28;19916;-71
2023/05/20 05:17:23;;;;;;;;;;;15.50;71.60;;;;;;5089207;28;19912;-71
2023/05/20 05:19:49;;;;;;;;;;;15.50;71.60;;;;;;5088936;28;19919;-71
2023/05/20 05:22:15;;;;;;;;;;;15.50;71.60;;;;;;5089184;28;19920;-71
2023/05/20 05:24:40;;;;;;;;;;;15.50;71.50;;;;;;5089177;28;19934;-71
2023/05/20 05:27:06;;;;;;;;;;;15.50;71.50;;;;;;5089009;28;19958;-71
2023/05/20 05:29:31;;;;;;;;;;;15.60;71.50;;;;;;5088696;28;19919;-71
2023/05/20 05:31:57;;;;;;;;;;;15.50;71.40;;;;;;5087526;28;19966;-71
2023/05/20 05:34:22;;;;;;;;;;;15.50;71.40;;;;;;5088801;28;19918;-71
2023/05/20 05:36:48;;;;;;;;;;;15.50;71.50;;;;;;5088906;28;19943;-71
2023/05/20 05:39:14;;;;;;;;;;;15.50;71.60;;;;;;5088902;28;20453;-71
2023/05/20 05:41:39;;;;;;;;;;;15.50;71.60;;;;;;5088832;28;19943;-71
2023/05/20 05:44:05;;;;;;;;;;;15.40;71.60;;;;;;5087480;28;20288;-71
2023/05/20 05:46:31;;;;;;;;;;;15.40;71.70;;;;;;5088699;28;19939;-71
2023/05/20 05:48:57;;;;;;;;;;;15.50;71.70;;;;;;5088587;28;19908;-71
2023/05/20 05:51:26;;;;;;;;;;;15.50;71.70;;;;;;5088617;28;20321;-71
2023/05/20 05:53:52;;;;;;;;;;;15.50;71.70;;;;;;5087126;28;20296;-71
2023/05/20 05:56:17;;;;;;;;;;;15.60;71.60;;;;;;5087086;28;19920;-71
2023/05/20 05:58:43;;;;;;;;;;;15.60;71.60;;;;;;5088338;28;20318;-71
2023/05/20 06:01:08;;;;;;;;;;;15.60;71.60;;;;;;5087919;28;19912;-72
2023/05/20 06:03:34;;;;;;;;;;;15.70;71.50;;;;;;5088872;28;19947;-71
2023/05/20 06:06:00;;;;;;;;;;;15.80;71.60;;;;;;5088377;28;19912;-70
2023/05/20 06:08:25;;;;;;;;;;;15.80;71.50;;;;;;5088294;28;19912;-71
2023/05/20 06:10:51;;;;;;;;;;;15.90;71.50;;;;;;5088109;28;19956;-70
2023/05/20 06:13:17;;;;;;;;;;;15.90;71.50;;;;;;5088299;28;19916;-70
2023/05/20 06:15:44;;;;;;;;;;;15.90;71.50;;;;;;5088013;28;20176;-71
2023/05/20 06:18:11;;;;;;;;;;;15.90;71.50;;;;;;5086757;28;20268;-70
2023/05/20 06:20:36;;;;;;;;;;;15.90;71.60;;;;;;5088159;28;19922;-70
2023/05/20 06:23:02;;;;;;;;;;;15.90;71.70;;;;;;5088051;28;20046;-71
2023/05/20 06:25:27;;;;;;;;;;;15.90;71.80;;;;;;5086641;28;19919;-71
2023/05/20 06:27:53;;;;;;;;;;;15.90;71.80;;;;;;5088400;28;20363;-71
2023/05/20 06:30:19;;;;;;;;;;;15.80;71.80;;;;;;5086582;28;19912;-71
2023/05/20 06:32:44;;;;;;;;;;;15.90;71.90;;;;;;5088451;28;19947;-71
2023/05/20 06:35:10;;;;;;;;;;;15.90;71.90;;;;;;5087652;28;20014;-71
2023/05/20 06:37:36;;;;;;;;;;;16.00;71.90;;;;;;5086592;28;20366;-72
2023/05/20 06:40:02;;;;;;;;;;;16.00;71.80;;;;;;5087739;28;19964;-72
2023/05/20 06:42:28;;;;;;;;;;;16.10;71.70;;;;;;5086735;28;19912;-71
2023/05/20 06:44:53;;;;;;;;;;;16.10;71.70;;;;;;5087670;28;19912;-71
2023/05/20 06:47:19;;;;;;;;;;;16.20;71.70;;;;;;5087845;28;20020;-71
2023/05/20 06:49:45;;;;;;;;;;;16.20;71.70;;;;;;5087793;28;19908;-72
2023/05/20 06:52:10;;;;;;;;;;;16.20;71.70;;;;;;5087679;28;19912;-71
2023/05/20 06:54:40;;;;;;;;;;;16.20;71.80;;;;;;5087733;28;19919;-72
2023/05/20 06:57:06;;;;;;;;;;;16.20;71.80;;;;;;5087463;28;20015;-71
2023/05/20 06:59:32;;;;;;;;;;;16.20;71.80;;;;;;5087646;28;19914;-71
2023/05/20 07:01:57;;;;;;;;;;;16.20;71.70;;;;;;5087515;28;19931;-71
2023/05/20 07:04:23;;;;;;;;;;;16.20;71.60;;;;;;5087483;28;20433;-71
2023/05/20 07:06:48;;;;;;;;;;;16.30;71.70;;;;;;5087630;28;19954;-71
2023/05/20 07:09:14;;;;;;;;;;;16.30;71.70;;;;;;5087626;28;19912;-71
2023/05/20 07:11:39;;;;;;;;;;;16.30;71.60;;;;;;5087668;28;19912;-71
2023/05/20 07:14:06;;;;;;;;;;;16.40;71.70;;;;;;5086085;28;19913;-71
2023/05/20 07:16:33;;;;;;;;;;;16.30;71.60;;;;;;5087320;28;19923;-71
2023/05/20 07:18:59;;;;;;;;;;;16.30;71.70;;;;;;5086098;28;19916;-70
2023/05/20 07:21:25;;;;;;;;;;;16.30;71.90;;;;;;5087470;28;20268;-71
2023/05/20 07:23:50;;;;;;;;;;;16.40;71.90;;;;;;5087422;28;19912;-71
2023/05/20 07:26:16;;;;;;;;;;;16.30;71.90;;;;;;5087279;28;20002;-71
2023/05/20 07:28:42;;;;;;;;;;;16.40;72.00;;;;;;5087347;28;19912;-71
2023/05/20 07:31:08;;;;;;;;;;;16.50;72.00;;;;;;5085400;28;19912;-71
2023/05/20 07:33:33;;;;;;;;;;;16.50;72.00;;;;;;5087392;28;19916;-71
2023/05/20 07:35:59;;;;;;;;;;;16.60;72.00;;;;;;5087285;28;19916;-70
2023/05/20 07:38:25;;;;;;;;;;;16.60;72.00;;;;;;5087151;28;19920;-70
2023/05/20 07:40:50;;;;;;;;;;;16.60;72.10;;;;;;5087179;28;19995;-71
2023/05/20 07:43:16;;;;;;;;;;;16.60;72.10;;;;;;5087149;28;19989;-71
2023/05/20 07:45:41;;;;;;;;;;;16.70;72.10;;;;;;5087060;28;19912;-71
2023/05/20 07:48:11;;;;;;;;;;;16.70;72.10;;;;;;5087294;28;19912;-71
2023/05/20 07:50:38;;;;;;;;;;;16.70;72.10;;;;;;5085564;28;19912;-71
2023/05/20 07:53:04;;;;;;;;;;;16.80;72.10;;;;;;5087457;28;20188;-71
2023/05/20 07:55:30;;;;;;;;;;;16.80;72.20;;;;;;5090915;28;19916;-71
2023/05/20 07:57:55;;;;;;;;;;;16.80;72.20;;;;;;5089926;28;19951;-71
2023/05/20 08:00:21;;;;;;;;;;;16.80;72.20;;;;;;5088815;28;19971;-71
2023/05/20 08:02:46;;;;;;;;;;;16.80;72.30;;;;;;5071879;28;19936;-70
2023/05/20 08:05:12;;;;;;;;;;;16.80;72.20;;;;;;5090442;28;19912;-71
2023/05/20 08:07:38;;;;;;;;;;;16.80;72.20;;;;;;5090509;28;20009;-71
2023/05/20 08:10:03;;;;;;;;;;;16.80;72.40;;;;;;5090591;28;20279;-71
2023/05/20 08:12:29;;;;;;;;;;;16.90;72.50;;;;;;5090420;28;19981;-71
2023/05/20 08:14:55;;;;;;;;;;;17.00;72.40;;;;;;5090176;28;19920;-71
2023/05/20 08:17:20;;;;;;;;;;;17.00;72.40;;;;;;5090228;28;19915;-71
2023/05/20 08:19:46;;;;;;;;;;;17.00;72.30;;;;;;5088754;28;20322;-71
2023/05/20 08:22:11;;;;;;;;;;;17.00;72.50;;;;;;5090138;28;19917;-71
2023/05/20 08:24:37;;;;;;;;;;;17.10;72.50;;;;;;5090071;28;19912;-71
2023/05/20 08:27:03;;;;;;;;;;;17.20;72.40;;;;;;5089617;28;19981;-71
2023/05/20 08:29:29;;;;;;;;;;;17.20;72.30;;;;;;5089720;28;19913;-71
2023/05/20 08:31:55;;;;;;;;;;;17.30;72.40;;;;;;5089797;28;19918;-71
2023/05/20 08:34:21;;;;;;;;;;;17.40;72.30;;;;;;5089580;28;20380;-71
2023/05/20 08:36:46;;;;;;;;;;;17.60;72.20;;;;;;5089604;28;19912;-71
2023/05/20 08:39:12;;;;;;;;;;;17.70;72.20;;;;;;5089442;28;20257;-71
2023/05/20 08:41:38;;;;;;;;;;;17.70;72.10;;;;;;5089329;28;19923;-71
2023/05/20 08:44:04;;;;;;;;;;;17.70;72.20;;;;;;5089351;28;20328;-71
2023/05/20 08:46:32;;;;;;;;;;;17.80;72.40;;;;;;5090492;28;19949;-71
2023/05/20 08:48:58;;;;;;;;;;;17.90;73.00;;;;;;5089283;28;19908;-70
2023/05/20 08:51:25;;;;;;;;;;;17.90;72.50;;;;;;5090546;28;19974;-70
2023/05/20 08:53:51;;;;;;;;;;;17.90;72.50;;;;;;5090182;28;19948;-70
2023/05/20 08:56:17;;;;;;;;;;;18.00;72.70;;;;;;5090469;28;19970;-69
2023/05/20 08:58:43;;;;;;;;;;;18.20;72.70;;;;;;5088711;28;19916;-70
2023/05/20 09:01:08;;;;;;;;;;;18.30;72.40;;;;;;5089782;28;19965;-71
2023/05/20 09:03:34;;;;;;;;;;;18.40;72.80;;;;;;5089544;28;20356;-70
2023/05/20 09:06:07;;;;;;;;;;;18.40;72.10;;;;;;5088932;28;20233;-70
2023/05/20 09:08:32;;;;;;;;;;;18.30;72.20;;;;;;5087399;28;19908;-70
2023/05/20 09:10:59;;;;;;;;;;;18.30;72.40;;;;;;5089668;28;19908;-70
2023/05/20 09:13:25;;;;;;;;;;;18.20;72.40;;;;;;5088394;28;19920;-70
2023/05/20 09:15:51;;;;;;;;;;;18.20;72.50;;;;;;5087861;28;20378;-70
2023/05/20 09:18:17;;;;;;;;;;;18.20;72.50;;;;;;5088072;28;19912;-69
2023/05/20 09:20:45;;;;;;;;;;;18.30;72.60;;;;;;5087274;28;20564;-70
2023/05/20 09:23:11;;;;;;;;;;;18.30;72.50;;;;;;5086131;28;19915;-70
2023/05/20 09:25:36;;;;;;;;;;;18.40;72.50;;;;;;5088937;28;20290;-70
2023/05/20 09:28:06;;;;;;;;;;;18.40;72.40;;;;;;5088908;28;19977;-70
2023/05/20 09:30:32;;;;;;;;;;;18.50;72.30;;;;;;5087814;28;20411;-70
2023/05/20 09:32:59;;;;;;;;;;;18.50;72.30;;;;;;5088545;28;19912;-70
2023/05/20 09:35:25;;;;;;;;;;;18.50;72.30;;;;;;5088367;28;19931;-70
2023/05/20 09:37:55;;;;;;;;;;;18.50;72.30;;;;;;5088121;28;19916;-70
2023/05/20 09:40:25;;;;;;;;;;;18.50;72.20;;;;;;5087944;28;19908;-70
2023/05/20 09:43:03;;;;;;;;;;;18.50;72.40;;;;;;5087806;28;19912;-74
2023/05/20 09:45:29;;;;;;;;;;;18.40;72.40;;;;;;5086797;28;20055;-69
2023/05/20 09:47:55;;;;;;;;;;;18.30;72.50;;;;;;5088243;28;20003;-70
2023/05/20 09:50:22;;;;;;;;;;;18.30;72.70;;;;;;5088061;28;20395;-70
2023/05/20 09:52:48;;;;;;;;;;;18.30;72.70;;;;;;5087886;28;19930;-70
2023/05/20 09:55:14;;;;;;;;;;;18.40;72.70;;;;;;5087843;28;19921;-70
2023/05/20 09:57:40;;;;;;;;;;;18.40;72.60;;;;;;5088140;28;19919;-70
2023/05/20 10:00:12;;;;;;;;;;;18.50;72.60;;;;;;5086713;28;19973;-70
2023/05/20 10:02:40;;;;;;;;;;;18.60;72.40;;;;;;5088429;28;19941;-71
2023/05/20 10:05:08;;;;;;;;;;;18.70;72.20;;;;;;5088603;28;20237;-71
2023/05/20 10:07:37;;;;;;;;;;;18.70;72.30;;;;;;5088875;28;20002;-72
2023/05/20 10:10:25;;;;;;;;;;;18.60;72.20;;;;;;5088732;28;20027;-71
2023/05/20 10:13:00;;;;;;;;;;;18.60;72.50;;;;;;5087834;28;19912;-71
2023/05/20 10:15:31;;;;;;;;;;;18.70;72.70;;;;;;5086837;28;19947;-71
2023/05/20 10:18:09;;;;;;;;;;;18.80;72.60;;;;;;5088554;28;19908;-70
2023/05/20 10:20:45;;;;;;;;;;;19.00;72.50;;;;;;5088427;28;19912;-71
2023/05/20 10:23:19;;;;;;;;;;;19.30;72.40;;;;;;5088367;28;20097;-71
2023/05/20 10:25:49;;;;;;;;;;;19.40;72.20;;;;;;5088503;28;20291;-70
2023/05/20 10:28:15;;;;;;;;;;;19.50;72.20;;;;;;5088491;28;19916;-71
2023/05/20 10:30:48;;;;;;;;;;;19.50;72.10;;;;;;5088234;28;20279;-71
2023/05/20 10:33:15;;;;;;;;;;;19.60;72.10;;;;;;5088032;28;19953;-71
2023/05/20 10:35:46;;;;;;;;;;;19.60;72.30;;;;;;5087977;28;19912;-71
2023/05/20 10:38:12;;;;;;;;;;;19.70;72.50;;;;;;5088345;28;19919;-72
2023/05/20 10:40:37;;;;;;;;;;;19.70;72.40;;;;;;5088553;28;19916;-73
2023/05/20 10:43:10;;;;;;;;;;;19.80;72.40;;;;;;5088324;28;19916;-71
2023/05/20 10:45:46;;;;;;;;;;;19.90;72.50;;;;;;5087859;28;19913;-71
2023/05/20 10:48:31;;;;;;;;;;;20.00;72.30;;;;;;5088817;28;20006;-71
2023/05/20 10:50:58;;;;;;;;;;;20.10;72.30;;;;;;5088008;28;19923;-71
2023/05/20 10:53:27;;;;;;;;;;;20.20;72.40;;;;;;5088248;28;19944;-71
2023/05/20 10:55:53;;;;;;;;;;;20.20;72.40;;;;;;5088066;28;19919;-71
2023/05/20 10:58:23;;;;;;;;;;;20.20;72.60;;;;;;5087645;28;19917;-70
2023/05/20 11:00:49;;;;;;;;;;;20.20;72.60;;;;;;5087619;28;19908;-71
2023/05/20 11:03:20;;;;;;;;;;;20.30;72.90;;;;;;5087218;28;20656;-70
2023/05/20 11:05:46;;;;;;;;;;;20.50;72.90;;;;;;5087142;28;19955;-72
2023/05/20 11:08:12;;;;;;;;;;;20.80;72.80;;;;;;5085883;28;19954;-71
2023/05/20 11:10:38;;;;;;;;;;;20.90;72.50;;;;;;5086695;28;19913;-70
2023/05/20 11:13:04;;;;;;;;;;;21.00;72.40;;;;;;5083272;28;19938;-71
2023/05/20 11:15:30;;;;;;;;;;;21.00;72.40;;;;;;5087325;28;19912;-71
2023/05/20 11:18:00;;;;;;;;;;;20.80;72.30;;;;;;5087419;28;20023;-71
2023/05/20 11:20:26;;;;;;;;;;;20.60;72.60;;;;;;5084042;28;20348;-71
2023/05/20 11:22:51;;;;;;;;;;;20.40;72.80;;;;;;5087446;28;19915;-70
2023/05/20 11:25:17;;;;;;;;;;;20.40;73.00;;;;;;5088062;28;19908;-69
2023/05/20 11:27:44;;;;;;;;;;;20.50;72.90;;;;;;5087783;28;19946;-71
2023/05/20 11:30:15;;;;;;;;;;;20.50;72.90;;;;;;5091909;28;19915;-70
2023/05/20 11:32:44;;;;;;;;;;;20.60;73.00;;;;;;5091184;28;19913;-70
2023/05/20 11:35:21;;;;;;;;;;;20.70;73.00;;;;;;5091327;28;19919;-71
2023/05/20 11:37:52;;;;;;;;;;;20.70;72.70;;;;;;5091368;28;20377;-72
2023/05/20 11:40:22;;;;;;;;;;;20.60;72.80;;;;;;5091447;28;19963;-71
2023/05/20 11:42:47;;;;;;;;;;;20.60;73.10;;;;;;5091383;28;19908;-70
2023/05/20 11:45:13;;;;;;;;;;;20.70;73.20;;;;;;5091189;28;20386;-70
2023/05/20 11:47:38;;;;;;;;;;;20.60;73.00;;;;;;5090658;28;19961;-70
2023/05/20 11:50:04;;;;;;;;;;;20.60;73.20;;;;;;5090753;28;19916;-71
2023/05/20 11:52:32;;;;;;;;;;;20.70;73.30;;;;;;5090765;28;20022;-72
2023/05/20 11:54:57;;;;;;;;;;;20.80;73.10;;;;;;5090774;28;19912;-71
2023/05/20 11:57:23;;;;;;;;;;;20.80;72.90;;;;;;5091192;28;19982;-74
2023/05/20 11:59:49;;;;;;;;;;;20.80;72.70;;;;;;5089897;28;19912;-77
2023/05/20 12:02:14;;;;;;;;;;;20.90;72.70;;;;;;5088782;28;19943;-72
2023/05/20 12:04:40;;;;;;;;;;;20.90;72.50;;;;;;5090960;28;19912;-71
2023/05/20 12:07:08;;;;;;;;;;;20.90;72.60;;;;;;5090998;28;20006;-69
2023/05/20 12:09:34;;;;;;;;;;;21.00;72.90;;;;;;5090476;28;19908;-71
2023/05/20 12:12:00;;;;;;;;;;;21.10;72.80;;;;;;5090203;28;19935;-72
2023/05/20 12:14:25;;;;;;;;;;;21.10;72.80;;;;;;5089563;28;19916;-72
2023/05/20 12:16:52;;;;;;;;;;;21.20;72.80;;;;;;5090064;28;19916;-71
2023/05/20 12:19:18;;;;;;;;;;;21.40;72.90;;;;;;5089750;28;19913;-70
2023/05/20 12:21:46;;;;;;;;;;;21.40;72.90;;;;;;5089408;28;20328;-71
2023/05/20 12:24:11;;;;;;;;;;;21.50;72.90;;;;;;5089543;28;19924;-71
2023/05/20 12:26:37;;;;;;;;;;;21.60;72.80;;;;;;5088984;28;19931;-71
2023/05/20 12:29:03;;;;;;;;;;;21.60;72.60;;;;;;5089092;28;19924;-71
2023/05/20 12:31:28;;;;;;;;;;;21.50;72.60;;;;;;5087677;28;19928;-71
2023/05/20 12:33:54;;;;;;;;;;;21.40;73.00;;;;;;5088129;28;20373;-72
2023/05/20 12:36:20;;;;;;;;;;;21.40;72.80;;;;;;5089369;28;20077;-73
2023/05/20 12:38:45;;;;;;;;;;;21.40;73.00;;;;;;5090233;28;20022;-75
2023/05/20 12:41:11;;;;;;;;;;;21.30;73.10;;;;;;5089429;28;19912;-74
2023/05/20 12:43:37;;;;;;;;;;;21.40;73.20;;;;;;5088986;28;20363;-75
2023/05/20 12:46:02;;;;;;;;;;;21.60;73.10;;;;;;5090013;28;19920;-71
2023/05/20 12:48:28;;;;;;;;;;;21.80;73.00;;;;;;5088473;28;20322;-71
2023/05/20 12:50:54;;;;;;;;;;;21.90;72.80;;;;;;5089749;28;19981;-71
2023/05/20 12:53:19;;;;;;;;;;;21.90;72.80;;;;;;5088397;28;20015;-72
2023/05/20 12:55:45;;;;;;;;;;;21.80;72.90;;;;;;5089938;28;19916;-73
2023/05/20 12:58:10;;;;;;;;;;;21.70;73.20;;;;;;5088281;28;19920;-72
2023/05/20 13:00:36;;;;;;;;;;;21.60;73.30;;;;;;5088018;28;19916;-70
2023/05/20 13:03:01;;;;;;;;;;;21.70;73.40;;;;;;5089565;28;20345;-71
2023/05/20 13:05:27;;;;;;;;;;;21.70;73.40;;;;;;5089807;28;19982;-71
2023/05/20 13:07:53;;;;;;;;;;;21.80;73.30;;;;;;5090049;28;19919;-72
2023/05/20 13:10:18;;;;;;;;;;;21.80;73.30;;;;;;5089697;28;19916;-72
2023/05/20 13:12:45;;;;;;;;;;;21.80;73.30;;;;;;5089809;28;19981;-71
2023/05/20 13:15:12;;;;;;;;;;;21.80;73.10;;;;;;5089389;28;19920;-71
2023/05/20 13:17:38;;;;;;;;;;;21.80;73.20;;;;;;5089111;28;19983;-70
2023/05/20 13:20:04;;;;;;;;;;;21.80;73.40;;;;;;5087331;28;19915;-71
2023/05/20 13:22:30;;;;;;;;;;;21.80;73.20;;;;;;5088598;28;20373;-74
2023/05/20 13:24:56;;;;;;;;;;;21.80;73.20;;;;;;5089115;28;19916;-72
2023/05/20 13:27:21;;;;;;;;;;;21.70;73.40;;;;;;5089389;28;20221;-71
2023/05/20 13:29:47;;;;;;;;;;;21.70;73.40;;;;;;5089127;28;19960;-72
2023/05/20 13:32:12;;;;;;;;;;;21.70;73.50;;;;;;5087728;28;19912;-73
2023/05/20 13:34:38;;;;;;;;;;;21.80;73.30;;;;;;5087194;28;19917;-71
2023/05/20 13:37:04;;;;;;;;;;;21.80;73.20;;;;;;5088747;28;19961;-72
2023/05/20 13:39:30;;;;;;;;;;;21.70;72.90;;;;;;5088464;28;19916;-72
2023/05/20 13:41:55;;;;;;;;;;;21.70;72.90;;;;;;5087537;28;19916;-72
2023/05/20 13:44:21;;;;;;;;;;;21.70;72.80;;;;;;5089017;28;19912;-72
2023/05/20 13:46:47;;;;;;;;;;;21.60;72.80;;;;;;5087595;28;19972;-72
2023/05/20 13:49:12;;;;;;;;;;;21.50;72.80;;;;;;5088450;28;19908;-72
2023/05/20 13:51:38;;;;;;;;;;;21.30;73.00;;;;;;5088036;28;20224;-73
2023/05/20 13:54:03;;;;;;;;;;;21.30;73.20;;;;;;5088259;28;19916;-72
2023/05/20 13:56:29;;;;;;;;;;;21.30;73.40;;;;;;5088294;28;19916;-72
2023/05/20 13:58:54;;;;;;;;;;;21.30;73.30;;;;;;5087790;28;20305;-72
2023/05/20 14:01:20;;;;;;;;;;;21.30;73.30;;;;;;5087510;28;19908;-72
2023/05/20 14:03:46;;;;;;;;;;;21.40;73.50;;;;;;5087723;28;19961;-73
2023/05/20 14:06:13;;;;;;;;;;;21.40;73.20;;;;;;5086586;28;19934;-72
2023/05/20 14:08:39;;;;;;;;;;;21.50;73.10;;;;;;5087671;28;19916;-74
2023/05/20 14:11:04;;;;;;;;;;;21.50;73.00;;;;;;5088114;28;20304;-74
2023/05/20 14:13:30;;;;;;;;;;;21.40;72.90;;;;;;5085974;28;19912;-73